sensor_id;sensor_type;location;lat;lon;timestamp;P1;durP1;ratioP1;P2;durP2;ratioP2
74535;SDS011;63013;51.104;-115.370;2023-03-23T00:01:30;1.20;;;0.40;;
74535;SDS011;63013;51.104;-115.370;2023-03-23T00:04:03;0.50;;;0.50;;
74535;SDS011;63013;51.104;-115.370;2023-03-23T00:06:30;0.60;;;0.60;;
74535;SDS011;63013;51.104;-115.370;2023-03-23T00:08:59;0.40;;;0.40;;
74535;SDS011;63013;51.104;-115.370;2023-03-23T00:11:30;0.40;;;0.40;;
74535;SDS011;63013;51.104;-115.370;2023-03-23T00:14:00;0.40;;;0.40;;
74535;SDS011;63013;51.104;-115.370;2023-03-23T00:16:31;0.40;;;0.40;;
74535;SDS011;63013;51.104;-115.370;2023-03-23T00:19:05;0.60;;;0.50;;
74535;SDS011;63013;51.104;-115.370;2023-03-23T00:21:40;0.50;;;0.50;;
74535;SDS011;63013;51.104;-115.370;2023-03-23T00:24:11;0.80;;;0.60;;
74535;SDS011;63013;51.104;-115.370;2023-03-23T00:26:43;0.40;;;0.40;;
74535;SDS011;63013;51.104;-115.370;2023-03-23T00:29:17;0.50;;;0.40;;
74535;SDS011;63013;51.104;-115.370;2023-03-23T00:31:47;1.80;;;0.50;;
74535;SDS011;63013;51.104;-115.370;2023-03-23T00:34:19;0.50;;;0.50;;
74535;SDS011;63013;51.104;-115.370;2023-03-23T00:36:50;1.50;;;0.50;;
74535;SDS011;63013;51.104;-115.370;2023-03-23T00:39:26;0.50;;;0.50;;
74535;SDS011;63013;51.104;-115.370;2023-03-23T00:41:55;0.60;;;0.50;;
74535;SDS011;63013;51.104;-115.370;2023-03-23T00:44:30;0.50;;;0.40;;
74535;SDS011;63013;51.104;-115.370;2023-03-23T00:47:01;0.60;;;0.60;;
74535;SDS011;63013;51.104;-115.370;2023-03-23T00:49:29;1.00;;;0.40;;
74535;SDS011;63013;51.104;-115.370;2023-03-23T00:52:02;1.20;;;0.40;;
74535;SDS011;63013;51.104;-115.370;2023-03-23T00:54:32;0.80;;;0.40;;
74535;SDS011;63013;51.104;-115.370;2023-03-23T00:57:01;0.30;;;0.30;;
74535;SDS011;63013;51.104;-115.370;2023-03-23T00:59:28;0.30;;;0.30;;
74535;SDS011;63013;51.104;-115.370;2023-03-23T01:01:55;1.00;;;0.40;;
74535;SDS011;63013;51.104;-115.370;2023-03-23T01:04:23;0.40;;;0.40;;
74535;SDS011;63013;51.104;-115.370;2023-03-23T01:06:57;0.60;;;0.40;;
74535;SDS011;63013;51.104;-115.370;2023-03-23T01:09:26;0.50;;;0.50;;
74535;SDS011;63013;51.104;-115.370;2023-03-23T01:11:55;0.40;;;0.40;;
74535;SDS011;63013;51.104;-115.370;2023-03-23T01:14:22;0.50;;;0.50;;
74535;SDS011;63013;51.104;-115.370;2023-03-23T01:16:51;0.90;;;0.50;;
74535;SDS011;63013;51.104;-115.370;2023-03-23T01:19:19;5.50;;;1.70;;
74535;SDS011;63013;51.104;-115.370;2023-03-23T01:21:46;6.20;;;2.20;;
74535;SDS011;63013;51.104;-115.370;2023-03-23T01:24:14;7.40;;;1.70;;
74535;SDS011;63013;51.104;-115.370;2023-03-23T01:26:41;5.60;;;1.80;;
74535;SDS011;63013;51.104;-115.370;2023-03-23T01:29:08;4.80;;;1.50;;
74535;SDS011;63013;51.104;-115.370;2023-03-23T01:31:37;5.10;;;1.90;;
74535;SDS011;63013;51.104;-115.370;2023-03-23T01:34:04;5.10;;;1.50;;
74535;SDS011;63013;51.104;-115.370;2023-03-23T01:36:32;3.50;;;1.40;;
74535;SDS011;63013;51.104;-115.370;2023-03-23T01:39:04;5.50;;;1.50;;
74535;SDS011;63013;51.104;-115.370;2023-03-23T01:41:33;4.40;;;1.30;;
74535;SDS011;63013;51.104;-115.370;2023-03-23T01:44:05;4.40;;;1.30;;
74535;SDS011;63013;51.104;-115.370;2023-03-23T01:46:44;3.10;;;1.40;;
74535;SDS011;63013;51.104;-115.370;2023-03-23T01:51:50;4.50;;;1.30;;
74535;SDS011;63013;51.104;-115.370;2023-03-23T01:54:23;3.50;;;1.20;;
74535;SDS011;63013;51.104;-115.370;2023-03-23T01:57:05;3.00;;;1.20;;
74535;SDS011;63013;51.104;-115.370;2023-03-23T01:59:36;6.60;;;1.10;;
74535;SDS011;63013;51.104;-115.370;2023-03-23T02:02:04;4.20;;;1.10;;
74535;SDS011;63013;51.104;-115.370;2023-03-23T02:04:31;2.60;;;1.40;;
74535;SDS011;63013;51.104;-115.370;2023-03-23T02:07:00;5.00;;;1.30;;
74535;SDS011;63013;51.104;-115.370;2023-03-23T02:09:30;3.50;;;1.20;;
74535;SDS011;63013;51.104;-115.370;2023-03-23T02:11:57;5.10;;;1.20;;
74535;SDS011;63013;51.104;-115.370;2023-03-23T02:14:26;3.10;;;1.10;;
74535;SDS011;63013;51.104;-115.370;2023-03-23T02:17:07;4.20;;;0.90;;
74535;SDS011;63013;51.104;-115.370;2023-03-23T02:23:07;3.00;;;0.90;;
74535;SDS011;63013;51.104;-115.370;2023-03-23T02:29:23;4.70;;;1.10;;
74535;SDS011;63013;51.104;-115.370;2023-03-23T02:34:51;4.20;;;1.20;;
74535;SDS011;63013;51.104;-115.370;2023-03-23T02:37:48;6.70;;;1.80;;
74535;SDS011;63013;51.104;-115.370;2023-03-23T02:40:30;3.00;;;1.10;;
74535;SDS011;63013;51.104;-115.370;2023-03-23T02:43:07;3.70;;;1.30;;
74535;SDS011;63013;51.104;-115.370;2023-03-23T02:45:41;4.30;;;1.20;;
74535;SDS011;63013;51.104;-115.370;2023-03-23T02:48:13;4.10;;;1.00;;
74535;SDS011;63013;51.104;-115.370;2023-03-23T02:50:45;2.70;;;1.00;;
74535;SDS011;63013;51.104;-115.370;2023-03-23T02:53:24;3.00;;;1.00;;
74535;SDS011;63013;51.104;-115.370;2023-03-23T02:55:56;3.40;;;0.90;;
74535;SDS011;63013;51.104;-115.370;2023-03-23T02:58:25;4.00;;;1.30;;
74535;SDS011;63013;51.104;-115.370;2023-03-23T03:00:53;2.20;;;0.90;;
74535;SDS011;63013;51.104;-115.370;2023-03-23T03:03:25;3.20;;;1.00;;
74535;SDS011;63013;51.104;-115.370;2023-03-23T03:06:43;5.50;;;1.00;;
74535;SDS011;63013;51.104;-115.370;2023-03-23T03:09:26;2.80;;;0.90;;
74535;SDS011;63013;51.104;-115.370;2023-03-23T03:15:29;3.20;;;1.10;;
74535;SDS011;63013;51.104;-115.370;2023-03-23T03:18:15;4.20;;;1.00;;
74535;SDS011;63013;51.104;-115.370;2023-03-23T03:20:54;3.80;;;1.00;;
74535;SDS011;63013;51.104;-115.370;2023-03-23T03:23:28;3.00;;;1.20;;
74535;SDS011;63013;51.104;-115.370;2023-03-23T03:25:58;3.20;;;1.10;;
74535;SDS011;63013;51.104;-115.370;2023-03-23T03:28:32;3.20;;;1.10;;
74535;SDS011;63013;51.104;-115.370;2023-03-23T03:31:02;3.30;;;1.00;;
74535;SDS011;63013;51.104;-115.370;2023-03-23T03:33:33;2.80;;;0.90;;
74535;SDS011;63013;51.104;-115.370;2023-03-23T03:36:03;3.20;;;1.00;;
74535;SDS011;63013;51.104;-115.370;2023-03-23T03:38:45;3.40;;;1.00;;
74535;SDS011;63013;51.104;-115.370;2023-03-23T03:41:14;4.00;;;0.90;;
74535;SDS011;63013;51.104;-115.370;2023-03-23T03:43:43;3.40;;;0.90;;
74535;SDS011;63013;51.104;-115.370;2023-03-23T03:46:10;3.20;;;1.00;;
74535;SDS011;63013;51.104;-115.370;2023-03-23T03:48:37;2.60;;;0.90;;
74535;SDS011;63013;51.104;-115.370;2023-03-23T03:51:05;3.50;;;1.00;;
74535;SDS011;63013;51.104;-115.370;2023-03-23T03:53:32;4.10;;;1.10;;
74535;SDS011;63013;51.104;-115.370;2023-03-23T03:55:59;3.00;;;1.10;;
74535;SDS011;63013;51.104;-115.370;2023-03-23T03:58:27;2.40;;;0.80;;
74535;SDS011;63013;51.104;-115.370;2023-03-23T04:01:00;4.10;;;1.10;;
74535;SDS011;63013;51.104;-115.370;2023-03-23T04:03:28;2.40;;;1.00;;
74535;SDS011;63013;51.104;-115.370;2023-03-23T04:05:55;4.10;;;1.00;;
74535;SDS011;63013;51.104;-115.370;2023-03-23T04:08:22;3.10;;;0.90;;
74535;SDS011;63013;51.104;-115.370;2023-03-23T04:10:50;3.80;;;0.90;;
74535;SDS011;63013;51.104;-115.370;2023-03-23T04:13:17;3.20;;;1.00;;
74535;SDS011;63013;51.104;-115.370;2023-03-23T04:15:45;2.40;;;1.10;;
74535;SDS011;63013;51.104;-115.370;2023-03-23T04:18:13;3.20;;;1.10;;
74535;SDS011;63013;51.104;-115.370;2023-03-23T04:20:44;2.50;;;0.80;;
74535;SDS011;63013;51.104;-115.370;2023-03-23T04:23:14;2.90;;;0.90;;
74535;SDS011;63013;51.104;-115.370;2023-03-23T04:25:50;2.40;;;0.90;;
74535;SDS011;63013;51.104;-115.370;2023-03-23T04:28:19;2.00;;;0.80;;
74535;SDS011;63013;51.104;-115.370;2023-03-23T04:30:50;3.20;;;0.90;;
74535;SDS011;63013;51.104;-115.370;2023-03-23T04:33:23;2.10;;;0.90;;
74535;SDS011;63013;51.104;-115.370;2023-03-23T04:35:53;2.80;;;1.10;;
74535;SDS011;63013;51.104;-115.370;2023-03-23T04:38:23;3.20;;;1.00;;
74535;SDS011;63013;51.104;-115.370;2023-03-23T04:40:52;3.60;;;1.00;;
74535;SDS011;63013;51.104;-115.370;2023-03-23T04:43:22;1.20;;;0.50;;
74535;SDS011;63013;51.104;-115.370;2023-03-23T04:45:58;2.40;;;0.70;;
74535;SDS011;63013;51.104;-115.370;2023-03-23T04:48:29;2.40;;;1.00;;
74535;SDS011;63013;51.104;-115.370;2023-03-23T04:51:01;4.10;;;1.10;;
74535;SDS011;63013;51.104;-115.370;2023-03-23T04:53:31;2.70;;;0.90;;
74535;SDS011;63013;51.104;-115.370;2023-03-23T04:55:58;1.20;;;0.70;;
74535;SDS011;63013;51.104;-115.370;2023-03-23T04:58:27;2.60;;;0.70;;
74535;SDS011;63013;51.104;-115.370;2023-03-23T05:00:55;1.60;;;0.70;;
74535;SDS011;63013;51.104;-115.370;2023-03-23T05:03:23;2.70;;;0.90;;
74535;SDS011;63013;51.104;-115.370;2023-03-23T05:05:51;2.70;;;1.10;;
74535;SDS011;63013;51.104;-115.370;2023-03-23T05:08:19;2.10;;;0.70;;
74535;SDS011;63013;51.104;-115.370;2023-03-23T05:10:57;2.20;;;0.90;;
74535;SDS011;63013;51.104;-115.370;2023-03-23T05:13:27;2.50;;;0.90;;
74535;SDS011;63013;51.104;-115.370;2023-03-23T05:15:54;2.20;;;0.80;;
74535;SDS011;63013;51.104;-115.370;2023-03-23T05:18:22;2.10;;;0.90;;
74535;SDS011;63013;51.104;-115.370;2023-03-23T05:20:50;1.40;;;0.70;;
74535;SDS011;63013;51.104;-115.370;2023-03-23T05:23:19;2.00;;;0.80;;
74535;SDS011;63013;51.104;-115.370;2023-03-23T05:25:55;1.60;;;0.70;;
74535;SDS011;63013;51.104;-115.370;2023-03-23T05:28:28;1.90;;;0.80;;
74535;SDS011;63013;51.104;-115.370;2023-03-23T05:30:56;1.70;;;0.60;;
74535;SDS011;63013;51.104;-115.370;2023-03-23T05:33:23;2.80;;;0.80;;
74535;SDS011;63013;51.104;-115.370;2023-03-23T05:35:51;2.10;;;0.80;;
74535;SDS011;63013;51.104;-115.370;2023-03-23T05:38:18;2.10;;;0.70;;
74535;SDS011;63013;51.104;-115.370;2023-03-23T05:40:45;2.40;;;0.70;;
74535;SDS011;63013;51.104;-115.370;2023-03-23T05:43:13;3.40;;;0.80;;
74535;SDS011;63013;51.104;-115.370;2023-03-23T05:45:40;2.80;;;0.70;;
74535;SDS011;63013;51.104;-115.370;2023-03-23T05:48:07;1.40;;;0.80;;
74535;SDS011;63013;51.104;-115.370;2023-03-23T05:50:35;1.80;;;0.70;;
74535;SDS011;63013;51.104;-115.370;2023-03-23T05:53:04;1.70;;;0.80;;
74535;SDS011;63013;51.104;-115.370;2023-03-23T05:55:32;1.30;;;0.60;;
74535;SDS011;63013;51.104;-115.370;2023-03-23T05:57:59;3.10;;;0.80;;
74535;SDS011;63013;51.104;-115.370;2023-03-23T06:00:26;3.50;;;0.70;;
74535;SDS011;63013;51.104;-115.370;2023-03-23T06:02:56;1.10;;;0.60;;
74535;SDS011;63013;51.104;-115.370;2023-03-23T06:05:23;2.60;;;0.80;;
74535;SDS011;63013;51.104;-115.370;2023-03-23T06:07:52;1.40;;;0.80;;
74535;SDS011;63013;51.104;-115.370;2023-03-23T06:10:20;2.00;;;0.90;;
74535;SDS011;63013;51.104;-115.370;2023-03-23T06:12:49;3.10;;;1.00;;
74535;SDS011;63013;51.104;-115.370;2023-03-23T06:15:18;1.60;;;0.60;;
74535;SDS011;63013;51.104;-115.370;2023-03-23T06:17:45;2.00;;;0.70;;
74535;SDS011;63013;51.104;-115.370;2023-03-23T06:20:13;1.70;;;0.70;;
74535;SDS011;63013;51.104;-115.370;2023-03-23T06:22:41;2.00;;;0.60;;
74535;SDS011;63013;51.104;-115.370;2023-03-23T06:25:09;1.70;;;0.60;;
74535;SDS011;63013;51.104;-115.370;2023-03-23T06:27:42;1.60;;;0.60;;
74535;SDS011;63013;51.104;-115.370;2023-03-23T06:30:10;1.60;;;0.70;;
74535;SDS011;63013;51.104;-115.370;2023-03-23T06:32:41;1.80;;;0.50;;
74535;SDS011;63013;51.104;-115.370;2023-03-23T06:35:13;1.80;;;0.70;;
74535;SDS011;63013;51.104;-115.370;2023-03-23T06:37:41;1.80;;;0.70;;
74535;SDS011;63013;51.104;-115.370;2023-03-23T06:40:09;1.70;;;0.70;;
74535;SDS011;63013;51.104;-115.370;2023-03-23T06:42:37;2.00;;;0.70;;
74535;SDS011;63013;51.104;-115.370;2023-03-23T06:45:04;1.50;;;0.80;;
74535;SDS011;63013;51.104;-115.370;2023-03-23T06:47:33;1.60;;;0.60;;
74535;SDS011;63013;51.104;-115.370;2023-03-23T06:50:03;1.80;;;0.50;;
74535;SDS011;63013;51.104;-115.370;2023-03-23T06:52:30;2.40;;;0.70;;
74535;SDS011;63013;51.104;-115.370;2023-03-23T06:54:57;1.90;;;0.60;;
74535;SDS011;63013;51.104;-115.370;2023-03-23T06:57:24;1.80;;;0.70;;
74535;SDS011;63013;51.104;-115.370;2023-03-23T06:59:52;1.50;;;0.70;;
74535;SDS011;63013;51.104;-115.370;2023-03-23T07:02:19;1.70;;;0.80;;
74535;SDS011;63013;51.104;-115.370;2023-03-23T07:04:46;1.30;;;0.70;;
74535;SDS011;63013;51.104;-115.370;2023-03-23T07:07:14;3.80;;;0.90;;
74535;SDS011;63013;51.104;-115.370;2023-03-23T07:09:44;1.80;;;0.60;;
74535;SDS011;63013;51.104;-115.370;2023-03-23T07:19:34;1.40;;;0.60;;
74535;SDS011;63013;51.104;-115.370;2023-03-23T07:22:04;1.40;;;0.60;;
74535;SDS011;63013;51.104;-115.370;2023-03-23T07:24:32;1.60;;;0.60;;
74535;SDS011;63013;51.104;-115.370;2023-03-23T07:27:00;1.50;;;0.60;;
74535;SDS011;63013;51.104;-115.370;2023-03-23T07:29:28;1.60;;;0.70;;
74535;SDS011;63013;51.104;-115.370;2023-03-23T07:31:56;2.00;;;0.80;;
74535;SDS011;63013;51.104;-115.370;2023-03-23T07:34:24;2.30;;;0.80;;
74535;SDS011;63013;51.104;-115.370;2023-03-23T07:36:51;1.50;;;0.70;;
74535;SDS011;63013;51.104;-115.370;2023-03-23T07:39:18;2.50;;;0.60;;
74535;SDS011;63013;51.104;-115.370;2023-03-23T07:41:45;1.40;;;0.60;;
74535;SDS011;63013;51.104;-115.370;2023-03-23T07:44:12;1.30;;;0.60;;
74535;SDS011;63013;51.104;-115.370;2023-03-23T07:46:39;1.50;;;0.70;;
74535;SDS011;63013;51.104;-115.370;2023-03-23T07:49:08;2.10;;;0.70;;
74535;SDS011;63013;51.104;-115.370;2023-03-23T07:51:36;1.50;;;0.60;;
74535;SDS011;63013;51.104;-115.370;2023-03-23T07:54:05;1.70;;;0.70;;
74535;SDS011;63013;51.104;-115.370;2023-03-23T07:56:36;2.60;;;0.60;;
74535;SDS011;63013;51.104;-115.370;2023-03-23T07:59:06;2.00;;;0.60;;
74535;SDS011;63013;51.104;-115.370;2023-03-23T08:01:34;1.60;;;0.50;;
74535;SDS011;63013;51.104;-115.370;2023-03-23T08:04:01;2.00;;;0.50;;
74535;SDS011;63013;51.104;-115.370;2023-03-23T08:06:29;2.10;;;0.80;;
74535;SDS011;63013;51.104;-115.370;2023-03-23T08:08:59;1.60;;;0.50;;
74535;SDS011;63013;51.104;-115.370;2023-03-23T08:11:27;1.40;;;0.60;;
74535;SDS011;63013;51.104;-115.370;2023-03-23T08:13:55;2.10;;;0.60;;
74535;SDS011;63013;51.104;-115.370;2023-03-23T08:16:22;2.00;;;0.70;;
74535;SDS011;63013;51.104;-115.370;2023-03-23T08:18:50;1.50;;;0.70;;
74535;SDS011;63013;51.104;-115.370;2023-03-23T08:21:18;0.90;;;0.50;;
74535;SDS011;63013;51.104;-115.370;2023-03-23T08:23:45;0.90;;;0.40;;
74535;SDS011;63013;51.104;-115.370;2023-03-23T08:26:13;1.40;;;0.70;;
74535;SDS011;63013;51.104;-115.370;2023-03-23T08:28:41;2.10;;;0.80;;
74535;SDS011;63013;51.104;-115.370;2023-03-23T08:31:11;2.30;;;0.60;;
74535;SDS011;63013;51.104;-115.370;2023-03-23T08:33:40;1.70;;;0.60;;
74535;SDS011;63013;51.104;-115.370;2023-03-23T08:36:08;1.90;;;0.60;;
74535;SDS011;63013;51.104;-115.370;2023-03-23T08:38:36;1.60;;;0.50;;
74535;SDS011;63013;51.104;-115.370;2023-03-23T08:41:05;1.10;;;0.80;;
74535;SDS011;63013;51.104;-115.370;2023-03-23T08:43:34;2.00;;;0.80;;
74535;SDS011;63013;51.104;-115.370;2023-03-23T08:46:01;2.80;;;0.70;;
74535;SDS011;63013;51.104;-115.370;2023-03-23T08:48:33;1.70;;;0.60;;
74535;SDS011;63013;51.104;-115.370;2023-03-23T08:51:02;1.20;;;0.60;;
74535;SDS011;63013;51.104;-115.370;2023-03-23T08:53:30;1.10;;;0.50;;
74535;SDS011;63013;51.104;-115.370;2023-03-23T08:56:10;0.80;;;0.40;;
74535;SDS011;63013;51.104;-115.370;2023-03-23T08:58:40;2.10;;;0.50;;
74535;SDS011;63013;51.104;-115.370;2023-03-23T09:01:08;1.10;;;0.60;;
74535;SDS011;63013;51.104;-115.370;2023-03-23T09:03:36;2.20;;;0.70;;
74535;SDS011;63013;51.104;-115.370;2023-03-23T09:06:07;0.90;;;0.50;;
74535;SDS011;63013;51.104;-115.370;2023-03-23T09:08:35;0.90;;;0.50;;
74535;SDS011;63013;51.104;-115.370;2023-03-23T09:11:05;1.10;;;0.70;;
74535;SDS011;63013;51.104;-115.370;2023-03-23T09:13:37;1.60;;;0.60;;
74535;SDS011;63013;51.104;-115.370;2023-03-23T09:16:06;2.50;;;0.60;;
74535;SDS011;63013;51.104;-115.370;2023-03-23T09:18:34;1.60;;;0.50;;
74535;SDS011;63013;51.104;-115.370;2023-03-23T09:21:02;1.10;;;0.60;;
74535;SDS011;63013;51.104;-115.370;2023-03-23T09:23:31;1.40;;;0.50;;
74535;SDS011;63013;51.104;-115.370;2023-03-23T09:26:00;1.10;;;0.40;;
74535;SDS011;63013;51.104;-115.370;2023-03-23T09:28:28;2.00;;;0.60;;
74535;SDS011;63013;51.104;-115.370;2023-03-23T09:30:57;1.50;;;0.60;;
74535;SDS011;63013;51.104;-115.370;2023-03-23T09:33:25;1.40;;;0.70;;
74535;SDS011;63013;51.104;-115.370;2023-03-23T09:35:54;0.70;;;0.40;;
74535;SDS011;63013;51.104;-115.370;2023-03-23T09:38:22;1.20;;;0.40;;
74535;SDS011;63013;51.104;-115.370;2023-03-23T09:41:04;0.90;;;0.50;;
74535;SDS011;63013;51.104;-115.370;2023-03-23T09:44:01;1.00;;;0.40;;
74535;SDS011;63013;51.104;-115.370;2023-03-23T09:49:48;1.20;;;0.50;;
74535;SDS011;63013;51.104;-115.370;2023-03-23T09:52:21;1.20;;;0.50;;
74535;SDS011;63013;51.104;-115.370;2023-03-23T09:54:55;1.60;;;0.50;;
74535;SDS011;63013;51.104;-115.370;2023-03-23T09:57:52;0.80;;;0.50;;
74535;SDS011;63013;51.104;-115.370;2023-03-23T10:00:40;1.30;;;0.60;;
74535;SDS011;63013;51.104;-115.370;2023-03-23T10:03:17;1.30;;;0.50;;
74535;SDS011;63013;51.104;-115.370;2023-03-23T10:05:49;1.20;;;0.50;;
74535;SDS011;63013;51.104;-115.370;2023-03-23T10:08:23;0.70;;;0.40;;
74535;SDS011;63013;51.104;-115.370;2023-03-23T10:16:32;2.00;;;0.60;;
74535;SDS011;63013;51.104;-115.370;2023-03-23T10:19:23;0.80;;;0.50;;
74535;SDS011;63013;51.104;-115.370;2023-03-23T10:22:05;0.80;;;0.40;;
74535;SDS011;63013;51.104;-115.370;2023-03-23T10:27:26;0.60;;;0.50;;
74535;SDS011;63013;51.104;-115.370;2023-03-23T10:35:55;1.00;;;0.50;;
74535;SDS011;63013;51.104;-115.370;2023-03-23T10:38:32;1.70;;;0.50;;
74535;SDS011;63013;51.104;-115.370;2023-03-23T10:41:11;0.80;;;0.50;;
74535;SDS011;63013;51.104;-115.370;2023-03-23T10:43:41;0.70;;;0.50;;
74535;SDS011;63013;51.104;-115.370;2023-03-23T10:46:40;0.80;;;0.40;;
74535;SDS011;63013;51.104;-115.370;2023-03-23T10:49:28;0.90;;;0.50;;
74535;SDS011;63013;51.104;-115.370;2023-03-23T10:55:03;1.40;;;0.50;;
74535;SDS011;63013;51.104;-115.370;2023-03-23T10:57:39;0.50;;;0.40;;
74535;SDS011;63013;51.104;-115.370;2023-03-23T11:00:19;1.30;;;0.60;;
74535;SDS011;63013;51.104;-115.370;2023-03-23T11:03:02;1.10;;;0.40;;
74535;SDS011;63013;51.104;-115.370;2023-03-23T11:05:47;1.00;;;0.60;;
74535;SDS011;63013;51.104;-115.370;2023-03-23T11:08:20;0.70;;;0.50;;
74535;SDS011;63013;51.104;-115.370;2023-03-23T11:10:53;0.70;;;0.40;;
74535;SDS011;63013;51.104;-115.370;2023-03-23T11:13:31;0.90;;;0.40;;
74535;SDS011;63013;51.104;-115.370;2023-03-23T11:16:07;1.20;;;0.40;;
74535;SDS011;63013;51.104;-115.370;2023-03-23T11:18:42;0.40;;;0.40;;
74535;SDS011;63013;51.104;-115.370;2023-03-23T11:21:12;0.90;;;0.50;;
74535;SDS011;63013;51.104;-115.370;2023-03-23T11:23:42;1.10;;;0.60;;
74535;SDS011;63013;51.104;-115.370;2023-03-23T11:26:31;1.00;;;0.40;;
74535;SDS011;63013;51.104;-115.370;2023-03-23T11:31:42;0.80;;;0.50;;
74535;SDS011;63013;51.104;-115.370;2023-03-23T11:34:29;1.30;;;0.40;;
74535;SDS011;63013;51.104;-115.370;2023-03-23T11:42:47;1.50;;;0.80;;
74535;SDS011;63013;51.104;-115.370;2023-03-23T11:51:28;0.80;;;0.40;;
74535;SDS011;63013;51.104;-115.370;2023-03-23T11:54:49;0.50;;;0.30;;
74535;SDS011;63013;51.104;-115.370;2023-03-23T11:56:55;0.90;;;0.50;;
74535;SDS011;63013;51.104;-115.370;2023-03-23T11:59:29;0.60;;;0.40;;
74535;SDS011;63013;51.104;-115.370;2023-03-23T12:02:27;0.80;;;0.40;;
74535;SDS011;63013;51.104;-115.370;2023-03-23T12:05:26;0.90;;;0.40;;
74535;SDS011;63013;51.104;-115.370;2023-03-23T12:16:28;0.80;;;0.50;;
74535;SDS011;63013;51.104;-115.370;2023-03-23T12:19:09;1.20;;;0.50;;
74535;SDS011;63013;51.104;-115.370;2023-03-23T12:24:41;1.10;;;0.40;;
74535;SDS011;63013;51.104;-115.370;2023-03-23T12:27:36;0.60;;;0.40;;
74535;SDS011;63013;51.104;-115.370;2023-03-23T12:37:06;1.00;;;0.40;;
74535;SDS011;63013;51.104;-115.370;2023-03-23T12:40:04;0.60;;;0.40;;
74535;SDS011;63013;51.104;-115.370;2023-03-23T12:43:01;0.60;;;0.40;;
74535;SDS011;63013;51.104;-115.370;2023-03-23T12:55:16;1.60;;;0.60;;
74535;SDS011;63013;51.104;-115.370;2023-03-23T12:58:19;1.40;;;0.50;;
74535;SDS011;63013;51.104;-115.370;2023-03-23T13:01:19;0.90;;;0.40;;
74535;SDS011;63013;51.104;-115.370;2023-03-23T13:06:48;0.70;;;0.40;;
74535;SDS011;63013;51.104;-115.370;2023-03-23T13:09:27;1.00;;;0.50;;
74535;SDS011;63013;51.104;-115.370;2023-03-23T13:12:17;1.20;;;0.40;;
74535;SDS011;63013;51.104;-115.370;2023-03-23T13:23:53;1.70;;;0.50;;
74535;SDS011;63013;51.104;-115.370;2023-03-23T13:26:30;1.10;;;0.40;;
74535;SDS011;63013;51.104;-115.370;2023-03-23T13:31:42;2.30;;;0.70;;
74535;SDS011;63013;51.104;-115.370;2023-03-23T13:36:56;1.30;;;0.40;;
74535;SDS011;63013;51.104;-115.370;2023-03-23T13:39:55;0.80;;;0.50;;
74535;SDS011;63013;51.104;-115.370;2023-03-23T13:42:53;0.60;;;0.40;;
74535;SDS011;63013;51.104;-115.370;2023-03-23T13:48:18;0.70;;;0.40;;
74535;SDS011;63013;51.104;-115.370;2023-03-23T13:50:55;1.00;;;0.50;;
74535;SDS011;63013;51.104;-115.370;2023-03-23T13:53:29;0.60;;;0.40;;
74535;SDS011;63013;51.104;-115.370;2023-03-23T13:59:15;0.60;;;0.30;;
74535;SDS011;63013;51.104;-115.370;2023-03-23T14:01:55;0.40;;;0.40;;
74535;SDS011;63013;51.104;-115.370;2023-03-23T14:04:44;0.70;;;0.20;;
74535;SDS011;63013;51.104;-115.370;2023-03-23T14:07:16;0.40;;;0.30;;
74535;SDS011;63013;51.104;-115.370;2023-03-23T14:09:45;1.00;;;0.30;;
74535;SDS011;63013;51.104;-115.370;2023-03-23T14:12:21;0.50;;;0.30;;
74535;SDS011;63013;51.104;-115.370;2023-03-23T14:15:03;0.60;;;0.50;;
74535;SDS011;63013;51.104;-115.370;2023-03-23T14:17:40;0.90;;;0.30;;
74535;SDS011;63013;51.104;-115.370;2023-03-23T14:20:25;1.00;;;0.30;;
74535;SDS011;63013;51.104;-115.370;2023-03-23T14:22:59;0.40;;;0.30;;
74535;SDS011;63013;51.104;-115.370;2023-03-23T14:25:30;0.80;;;0.50;;
74535;SDS011;63013;51.104;-115.370;2023-03-23T14:28:04;0.50;;;0.30;;
74535;SDS011;63013;51.104;-115.370;2023-03-23T14:30:42;0.50;;;0.40;;
74535;SDS011;63013;51.104;-115.370;2023-03-23T14:33:12;0.60;;;0.30;;
74535;SDS011;63013;51.104;-115.370;2023-03-23T14:35:42;0.40;;;0.30;;
74535;SDS011;63013;51.104;-115.370;2023-03-23T14:38:16;0.60;;;0.30;;
74535;SDS011;63013;51.104;-115.370;2023-03-23T14:40:51;0.70;;;0.30;;
74535;SDS011;63013;51.104;-115.370;2023-03-23T14:43:20;0.30;;;0.30;;
74535;SDS011;63013;51.104;-115.370;2023-03-23T14:45:56;0.40;;;0.40;;
74535;SDS011;63013;51.104;-115.370;2023-03-23T14:48:27;0.60;;;0.30;;
74535;SDS011;63013;51.104;-115.370;2023-03-23T14:51:01;0.40;;;0.30;;
74535;SDS011;63013;51.104;-115.370;2023-03-23T14:53:35;0.60;;;0.40;;
74535;SDS011;63013;51.104;-115.370;2023-03-23T14:56:15;0.40;;;0.30;;
74535;SDS011;63013;51.104;-115.370;2023-03-23T14:58:45;0.60;;;0.40;;
74535;SDS011;63013;51.104;-115.370;2023-03-23T15:01:24;0.50;;;0.30;;
74535;SDS011;63013;51.104;-115.370;2023-03-23T15:04:17;0.30;;;0.30;;
74535;SDS011;63013;51.104;-115.370;2023-03-23T15:07:00;1.40;;;0.40;;
74535;SDS011;63013;51.104;-115.370;2023-03-23T15:09:30;0.60;;;0.40;;
74535;SDS011;63013;51.104;-115.370;2023-03-23T15:12:03;0.50;;;0.40;;
74535;SDS011;63013;51.104;-115.370;2023-03-23T15:14:56;0.40;;;0.40;;
74535;SDS011;63013;51.104;-115.370;2023-03-23T15:17:28;0.30;;;0.30;;
74535;SDS011;63013;51.104;-115.370;2023-03-23T15:19:57;1.00;;;0.20;;
74535;SDS011;63013;51.104;-115.370;2023-03-23T15:22:33;1.00;;;0.50;;
74535;SDS011;63013;51.104;-115.370;2023-03-23T15:25:10;0.70;;;0.30;;
74535;SDS011;63013;51.104;-115.370;2023-03-23T15:27:55;0.40;;;0.30;;
74535;SDS011;63013;51.104;-115.370;2023-03-23T15:32:59;0.40;;;0.30;;
74535;SDS011;63013;51.104;-115.370;2023-03-23T15:35:35;0.50;;;0.30;;
74535;SDS011;63013;51.104;-115.370;2023-03-23T15:38:05;0.70;;;0.40;;
74535;SDS011;63013;51.104;-115.370;2023-03-23T15:40:41;0.20;;;0.20;;
74535;SDS011;63013;51.104;-115.370;2023-03-23T15:43:24;0.80;;;0.40;;
74535;SDS011;63013;51.104;-115.370;2023-03-23T15:48:48;1.10;;;0.40;;
74535;SDS011;63013;51.104;-115.370;2023-03-23T15:51:33;0.40;;;0.30;;
74535;SDS011;63013;51.104;-115.370;2023-03-23T15:54:01;0.40;;;0.30;;
74535;SDS011;63013;51.104;-115.370;2023-03-23T15:56:29;0.20;;;0.20;;
74535;SDS011;63013;51.104;-115.370;2023-03-23T15:58:57;1.00;;;0.30;;
74535;SDS011;63013;51.104;-115.370;2023-03-23T16:01:27;0.30;;;0.30;;
74535;SDS011;63013;51.104;-115.370;2023-03-23T16:04:25;1.70;;;0.60;;
74535;SDS011;63013;51.104;-115.370;2023-03-23T16:06:55;0.50;;;0.30;;
74535;SDS011;63013;51.104;-115.370;2023-03-23T16:09:24;0.50;;;0.20;;
74535;SDS011;63013;51.104;-115.370;2023-03-23T16:11:51;0.30;;;0.30;;
74535;SDS011;63013;51.104;-115.370;2023-03-23T16:14:18;0.40;;;0.30;;
74535;SDS011;63013;51.104;-115.370;2023-03-23T16:16:48;0.50;;;0.40;;
74535;SDS011;63013;51.104;-115.370;2023-03-23T16:19:18;0.40;;;0.30;;
74535;SDS011;63013;51.104;-115.370;2023-03-23T16:21:49;0.40;;;0.40;;
74535;SDS011;63013;51.104;-115.370;2023-03-23T16:24:17;0.40;;;0.40;;
74535;SDS011;63013;51.104;-115.370;2023-03-23T16:26:44;0.30;;;0.30;;
74535;SDS011;63013;51.104;-115.370;2023-03-23T16:29:16;0.30;;;0.30;;
74535;SDS011;63013;51.104;-115.370;2023-03-23T16:31:43;0.30;;;0.30;;
74535;SDS011;63013;51.104;-115.370;2023-03-23T16:34:14;0.40;;;0.30;;
74535;SDS011;63013;51.104;-115.370;2023-03-23T16:36:44;0.90;;;0.30;;